sensor_id;sensor_type;location;lat;lon;timestamp;temperature;humidity
42885;DHT22;28534;48.100;11.584;2024-01-30T00:00:13;22.30;48.70
42885;DHT22;28534;48.100;11.584;2024-01-30T00:01:14;22.30;48.60
42885;DHT22;28534;48.100;11.584;2024-01-30T00:02:16;22.30;48.80
42885;DHT22;28534;48.100;11.584;2024-01-30T00:03:16;22.30;48.80
42885;DHT22;28534;48.100;11.584;2024-01-30T00:04:18;22.30;48.70
42885;DHT22;28534;48.100;11.584;2024-01-30T00:05:18;22.40;48.90
42885;DHT22;28534;48.100;11.584;2024-01-30T00:06:19;22.40;48.90
42885;DHT22;28534;48.100;11.584;2024-01-30T00:07:21;22.20;48.80
42885;DHT22;28534;48.100;11.584;2024-01-30T00:08:22;22.20;48.90
42885;DHT22;28534;48.100;11.584;2024-01-30T00:09:23;22.20;48.90
42885;DHT22;28534;48.100;11.584;2024-01-30T00:10:24;22.20;49.00
42885;DHT22;28534;48.100;11.584;2024-01-30T00:11:27;22.20;49.10
42885;DHT22;28534;48.100;11.584;2024-01-30T00:12:29;22.10;49.10
42885;DHT22;28534;48.100;11.584;2024-01-30T00:13:32;22.10;49.10
42885;DHT22;28534;48.100;11.584;2024-01-30T00:14:32;22.20;49.20
42885;DHT22;28534;48.100;11.584;2024-01-30T00:15:33;22.20;49.30
42885;DHT22;28534;48.100;11.584;2024-01-30T00:16:35;22.10;49.30
42885;DHT22;28534;48.100;11.584;2024-01-30T00:17:36;22.10;49.30
42885;DHT22;28534;48.100;11.584;2024-01-30T00:18:37;22.00;49.40
42885;DHT22;28534;48.100;11.584;2024-01-30T00:19:39;22.00;49.50
42885;DHT22;28534;48.100;11.584;2024-01-30T00:20:40;22.00;49.50
42885;DHT22;28534;48.100;11.584;2024-01-30T00:21:43;22.00;49.80
42885;DHT22;28534;48.100;11.584;2024-01-30T00:22:43;21.90;49.70
42885;DHT22;28534;48.100;11.584;2024-01-30T00:23:45;22.00;49.80
42885;DHT22;28534;48.100;11.584;2024-01-30T00:24:45;21.90;49.80
42885;DHT22;28534;48.100;11.584;2024-01-30T00:25:46;21.90;49.90
42885;DHT22;28534;48.100;11.584;2024-01-30T00:26:49;21.90;50.00
42885;DHT22;28534;48.100;11.584;2024-01-30T00:27:50;22.00;50.00
42885;DHT22;28534;48.100;11.584;2024-01-30T00:28:50;21.90;50.00
42885;DHT22;28534;48.100;11.584;2024-01-30T00:29:52;21.80;50.00
42885;DHT22;28534;48.100;11.584;2024-01-30T00:30:53;21.80;50.10
42885;DHT22;28534;48.100;11.584;2024-01-30T00:31:54;22.00;50.30
42885;DHT22;28534;48.100;11.584;2024-01-30T00:32:55;21.90;50.20
42885;DHT22;28534;48.100;11.584;2024-01-30T00:33:56;21.90;50.30
42885;DHT22;28534;48.100;11.584;2024-01-30T00:34:57;21.80;50.30
42885;DHT22;28534;48.100;11.584;2024-01-30T00:35:59;21.70;50.20
42885;DHT22;28534;48.100;11.584;2024-01-30T00:36:59;21.80;50.30
42885;DHT22;28534;48.100;11.584;2024-01-30T00:38:01;21.70;50.20
42885;DHT22;28534;48.100;11.584;2024-01-30T00:39:01;21.80;50.30
42885;DHT22;28534;48.100;11.584;2024-01-30T00:40:06;21.70;50.30
42885;DHT22;28534;48.100;11.584;2024-01-30T00:41:08;21.70;50.30
42885;DHT22;28534;48.100;11.584;2024-01-30T00:42:11;21.80;50.40
42885;DHT22;28534;48.100;11.584;2024-01-30T00:43:11;21.70;50.40
42885;DHT22;28534;48.100;11.584;2024-01-30T00:44:13;21.70;50.40
42885;DHT22;28534;48.100;11.584;2024-01-30T00:45:13;21.80;50.50
42885;DHT22;28534;48.100;11.584;2024-01-30T00:46:15;21.70;50.50
42885;DHT22;28534;48.100;11.584;2024-01-30T00:47:16;21.70;50.40
42885;DHT22;28534;48.100;11.584;2024-01-30T00:48:17;21.70;50.50
42885;DHT22;28534;48.100;11.584;2024-01-30T00:49:18;21.80;50.60
42885;DHT22;28534;48.100;11.584;2024-01-30T00:50:20;21.80;50.60
42885;DHT22;28534;48.100;11.584;2024-01-30T00:51:20;21.80;50.60
42885;DHT22;28534;48.100;11.584;2024-01-30T00:52:21;21.70;50.60
42885;DHT22;28534;48.100;11.584;2024-01-30T00:53:23;21.70;50.60
42885;DHT22;28534;48.100;11.584;2024-01-30T00:54:23;21.90;50.60
42885;DHT22;28534;48.100;11.584;2024-01-30T00:55:24;21.80;50.60
42885;DHT22;28534;48.100;11.584;2024-01-30T00:56:25;21.80;50.60
42885;DHT22;28534;48.100;11.584;2024-01-30T00:57:27;21.90;50.70
42885;DHT22;28534;48.100;11.584;2024-01-30T00:58:29;21.80;50.60
42885;DHT22;28534;48.100;11.584;2024-01-30T00:59:29;21.90;50.70
42885;DHT22;28534;48.100;11.584;2024-01-30T01:00:31;21.80;50.70
42885;DHT22;28534;48.100;11.584;2024-01-30T01:01:32;21.90;50.70
42885;DHT22;28534;48.100;11.584;2024-01-30T01:02:34;21.80;50.60
42885;DHT22;28534;48.100;11.584;2024-01-30T01:03:34;21.80;50.50
42885;DHT22;28534;48.100;11.584;2024-01-30T01:04:35;22.00;50.40
42885;DHT22;28534;48.100;11.584;2024-01-30T01:05:36;22.00;50.30
42885;DHT22;28534;48.100;11.584;2024-01-30T01:06:37;21.90;50.10
42885;DHT22;28534;48.100;11.584;2024-01-30T01:07:39;22.00;50.10
42885;DHT22;28534;48.100;11.584;2024-01-30T01:08:40;22.20;50.00
42885;DHT22;28534;48.100;11.584;2024-01-30T01:09:42;22.30;50.00
42885;DHT22;28534;48.100;11.584;2024-01-30T01:10:42;22.20;49.90
42885;DHT22;28534;48.100;11.584;2024-01-30T01:11:44;22.10;49.80
42885;DHT22;28534;48.100;11.584;2024-01-30T01:12:46;22.10;49.70
42885;DHT22;28534;48.100;11.584;2024-01-30T01:13:47;22.10;49.60
42885;DHT22;28534;48.100;11.584;2024-01-30T01:14:48;22.20;49.60
42885;DHT22;28534;48.100;11.584;2024-01-30T01:15:49;22.20;49.60
42885;DHT22;28534;48.100;11.584;2024-01-30T01:16:50;22.20;49.60
42885;DHT22;28534;48.100;11.584;2024-01-30T01:17:51;22.20;49.60
42885;DHT22;28534;48.100;11.584;2024-01-30T01:18:52;22.40;49.70
42885;DHT22;28534;48.100;11.584;2024-01-30T01:19:53;22.20;49.60
42885;DHT22;28534;48.100;11.584;2024-01-30T01:20:54;22.20;49.60
42885;DHT22;28534;48.100;11.584;2024-01-30T01:21:55;22.20;49.60
42885;DHT22;28534;48.100;11.584;2024-01-30T01:22:57;22.30;49.70
42885;DHT22;28534;48.100;11.584;2024-01-30T01:23:57;22.20;49.60
42885;DHT22;28534;48.100;11.584;2024-01-30T01:24:59;22.20;49.70
42885;DHT22;28534;48.100;11.584;2024-01-30T01:26:00;22.20;49.60
42885;DHT22;28534;48.100;11.584;2024-01-30T01:27:01;22.40;49.60
42885;DHT22;28534;48.100;11.584;2024-01-30T01:28:04;22.30;49.50
42885;DHT22;28534;48.100;11.584;2024-01-30T01:29:06;22.30;50.20
42885;DHT22;28534;48.100;11.584;2024-01-30T01:30:10;22.30;49.60
42885;DHT22;28534;48.100;11.584;2024-01-30T01:31:14;22.20;49.60
42885;DHT22;28534;48.100;11.584;2024-01-30T01:32:15;22.20;49.70
42885;DHT22;28534;48.100;11.584;2024-01-30T01:33:17;22.20;49.80
42885;DHT22;28534;48.100;11.584;2024-01-30T01:34:17;22.20;49.80
42885;DHT22;28534;48.100;11.584;2024-01-30T01:35:19;22.30;49.90
42885;DHT22;28534;48.100;11.584;2024-01-30T01:36:20;22.20;49.80
42885;DHT22;28534;48.100;11.584;2024-01-30T01:37:21;22.10;49.80
42885;DHT22;28534;48.100;11.584;2024-01-30T01:38:22;22.10;49.90
42885;DHT22;28534;48.100;11.584;2024-01-30T01:39:23;22.10;49.90
42885;DHT22;28534;48.100;11.584;2024-01-30T01:40:25;22.10;49.90
42885;DHT22;28534;48.100;11.584;2024-01-30T01:41:29;22.30;50.00
42885;DHT22;28534;48.100;11.584;2024-01-30T01:42:31;22.10;50.00
42885;DHT22;28534;48.100;11.584;2024-01-30T01:43:33;22.10;50.00
42885;DHT22;28534;48.100;11.584;2024-01-30T01:44:34;22.10;50.10
42885;DHT22;28534;48.100;11.584;2024-01-30T01:45:35;22.10;50.20
42885;DHT22;28534;48.100;11.584;2024-01-30T01:46:37;22.30;50.40
42885;DHT22;28534;48.100;11.584;2024-01-30T01:47:37;22.00;50.30
42885;DHT22;28534;48.100;11.584;2024-01-30T01:48:38;22.00;50.30
42885;DHT22;28534;48.100;11.584;2024-01-30T01:49:40;22.10;50.40
42885;DHT22;28534;48.100;11.584;2024-01-30T01:50:41;22.00;50.40
42885;DHT22;28534;48.100;11.584;2024-01-30T01:51:43;21.90;50.50
42885;DHT22;28534;48.100;11.584;2024-01-30T01:52:45;22.00;50.60
42885;DHT22;28534;48.100;11.584;2024-01-30T01:53:48;21.90;50.60
42885;DHT22;28534;48.100;11.584;2024-01-30T01:54:49;21.80;50.70
42885;DHT22;28534;48.100;11.584;2024-01-30T01:55:49;21.80;50.80
42885;DHT22;28534;48.100;11.584;2024-01-30T01:56:53;21.90;50.90
42885;DHT22;28534;48.100;11.584;2024-01-30T01:57:54;21.80;50.90
42885;DHT22;28534;48.100;11.584;2024-01-30T01:58:58;21.70;50.90
42885;DHT22;28534;48.100;11.584;2024-01-30T02:00:00;21.80;51.00
42885;DHT22;28534;48.100;11.584;2024-01-30T02:01:02;21.90;51.40
42885;DHT22;28534;48.100;11.584;2024-01-30T02:02:04;21.70;51.00
42885;DHT22;28534;48.100;11.584;2024-01-30T02:03:06;21.80;51.10
42885;DHT22;28534;48.100;11.584;2024-01-30T02:04:07;21.90;51.10
42885;DHT22;28534;48.100;11.584;2024-01-30T02:05:09;21.90;51.20
42885;DHT22;28534;48.100;11.584;2024-01-30T02:06:09;21.90;51.20
42885;DHT22;28534;48.100;11.584;2024-01-30T02:07:11;21.70;51.10
42885;DHT22;28534;48.100;11.584;2024-01-30T02:08:12;21.80;51.20
42885;DHT22;28534;48.100;11.584;2024-01-30T02:09:13;21.70;51.20
42885;DHT22;28534;48.100;11.584;2024-01-30T02:10:14;21.70;51.20
42885;DHT22;28534;48.100;11.584;2024-01-30T02:11:15;21.70;51.30
42885;DHT22;28534;48.100;11.584;2024-01-30T02:12:17;21.70;51.30
42885;DHT22;28534;48.100;11.584;2024-01-30T02:13:18;21.70;51.30
42885;DHT22;28534;48.100;11.584;2024-01-30T02:14:20;21.60;51.30
42885;DHT22;28534;48.100;11.584;2024-01-30T02:15:22;21.60;51.30
42885;DHT22;28534;48.100;11.584;2024-01-30T02:16:22;21.70;51.30
42885;DHT22;28534;48.100;11.584;2024-01-30T02:17:24;22.00;51.50
42885;DHT22;28534;48.100;11.584;2024-01-30T02:18:24;21.60;51.30
42885;DHT22;28534;48.100;11.584;2024-01-30T02:19:26;21.60;51.30
42885;DHT22;28534;48.100;11.584;2024-01-30T02:20:27;21.70;51.40
42885;DHT22;28534;48.100;11.584;2024-01-30T02:21:32;21.60;51.40
42885;DHT22;28534;48.100;11.584;2024-01-30T02:22:33;21.60;51.40
42885;DHT22;28534;48.100;11.584;2024-01-30T02:23:35;21.20;51.30
42885;DHT22;28534;48.100;11.584;2024-01-30T02:24:36;21.70;51.50
42885;DHT22;28534;48.100;11.584;2024-01-30T02:25:39;21.60;51.50
42885;DHT22;28534;48.100;11.584;2024-01-30T02:26:44;21.70;51.50
42885;DHT22;28534;48.100;11.584;2024-01-30T02:27:45;21.80;51.50
42885;DHT22;28534;48.100;11.584;2024-01-30T02:28:46;21.60;51.30
42885;DHT22;28534;48.100;11.584;2024-01-30T02:29:48;21.80;51.40
42885;DHT22;28534;48.100;11.584;2024-01-30T02:30:48;21.70;51.30
42885;DHT22;28534;48.100;11.584;2024-01-30T02:31:50;21.70;51.20
42885;DHT22;28534;48.100;11.584;2024-01-30T02:32:50;21.90;51.30
42885;DHT22;28534;48.100;11.584;2024-01-30T02:33:52;21.80;51.20
42885;DHT22;28534;48.100;11.584;2024-01-30T02:34:53;21.90;51.20
42885;DHT22;28534;48.100;11.584;2024-01-30T02:35:54;21.80;51.70
42885;DHT22;28534;48.100;11.584;2024-01-30T02:36:56;22.00;51.10
42885;DHT22;28534;48.100;11.584;2024-01-30T02:37:58;21.90;50.90
42885;DHT22;28534;48.100;11.584;2024-01-30T02:38:59;21.90;50.80
42885;DHT22;28534;48.100;11.584;2024-01-30T02:40:00;21.90;50.80
42885;DHT22;28534;48.100;11.584;2024-01-30T02:41:01;22.10;50.80
42885;DHT22;28534;48.100;11.584;2024-01-30T02:42:02;22.00;50.70
42885;DHT22;28534;48.100;11.584;2024-01-30T02:43:03;22.00;50.70
42885;DHT22;28534;48.100;11.584;2024-01-30T02:44:05;22.00;50.60
42885;DHT22;28534;48.100;11.584;2024-01-30T02:45:06;22.20;50.60
42885;DHT22;28534;48.100;11.584;2024-01-30T02:46:08;22.10;50.50
42885;DHT22;28534;48.100;11.584;2024-01-30T02:47:09;22.10;50.40
42885;DHT22;28534;48.100;11.584;2024-01-30T02:48:09;22.20;50.60
42885;DHT22;28534;48.100;11.584;2024-01-30T02:49:11;22.10;50.50
42885;DHT22;28534;48.100;11.584;2024-01-30T02:50:12;22.20;50.60
42885;DHT22;28534;48.100;11.584;2024-01-30T02:51:15;22.20;50.50
42885;DHT22;28534;48.100;11.584;2024-01-30T02:52:17;22.10;50.40
42885;DHT22;28534;48.100;11.584;2024-01-30T02:53:17;22.00;50.40
42885;DHT22;28534;48.100;11.584;2024-01-30T02:54:19;22.00;50.40
42885;DHT22;28534;48.100;11.584;2024-01-30T02:55:20;22.20;50.50
42885;DHT22;28534;48.100;11.584;2024-01-30T02:56:21;22.00;50.50
42885;DHT22;28534;48.100;11.584;2024-01-30T02:57:22;22.20;50.60
42885;DHT22;28534;48.100;11.584;2024-01-30T02:58:23;22.00;50.50
42885;DHT22;28534;48.100;11.584;2024-01-30T02:59:24;22.20;50.70
42885;DHT22;28534;48.100;11.584;2024-01-30T03:00:26;22.10;50.80
42885;DHT22;28534;48.100;11.584;2024-01-30T03:01:26;22.10;51.00
42885;DHT22;28534;48.100;11.584;2024-01-30T03:02:27;22.00;51.00
42885;DHT22;28534;48.100;11.584;2024-01-30T03:03:28;21.90;51.10
42885;DHT22;28534;48.100;11.584;2024-01-30T03:04:29;21.90;51.20
42885;DHT22;28534;48.100;11.584;2024-01-30T03:05:31;21.80;51.20
42885;DHT22;28534;48.100;11.584;2024-01-30T03:06:31;21.80;51.20
42885;DHT22;28534;48.100;11.584;2024-01-30T03:07:34;21.80;51.20
42885;DHT22;28534;48.100;11.584;2024-01-30T03:08:35;21.90;51.80
42885;DHT22;28534;48.100;11.584;2024-01-30T03:09:37;22.00;51.20
42885;DHT22;28534;48.100;11.584;2024-01-30T03:10:38;21.80;51.10
42885;DHT22;28534;48.100;11.584;2024-01-30T03:11:39;22.00;51.10
42885;DHT22;28534;48.100;11.584;2024-01-30T03:12:40;22.00;51.10
42885;DHT22;28534;48.100;11.584;2024-01-30T03:13:42;22.00;51.10
42885;DHT22;28534;48.100;11.584;2024-01-30T03:14:42;21.80;51.00
42885;DHT22;28534;48.100;11.584;2024-01-30T03:15:44;22.00;51.00
42885;DHT22;28534;48.100;11.584;2024-01-30T03:16:44;22.00;51.00
42885;DHT22;28534;48.100;11.584;2024-01-30T03:17:46;22.00;51.10
42885;DHT22;28534;48.100;11.584;2024-01-30T03:18:47;22.00;51.10
42885;DHT22;28534;48.100;11.584;2024-01-30T03:19:48;21.80;51.10
42885;DHT22;28534;48.100;11.584;2024-01-30T03:20:49;22.00;51.20
42885;DHT22;28534;48.100;11.584;2024-01-30T03:21:50;21.90;51.20
42885;DHT22;28534;48.100;11.584;2024-01-30T03:22:53;21.80;51.20
42885;DHT22;28534;48.100;11.584;2024-01-30T03:23:55;21.80;51.20
42885;DHT22;28534;48.100;11.584;2024-01-30T03:24:55;21.90;51.20
42885;DHT22;28534;48.100;11.584;2024-01-30T03:25:57;21.90;51.90
42885;DHT22;28534;48.100;11.584;2024-01-30T03:26:57;21.90;51.20
42885;DHT22;28534;48.100;11.584;2024-01-30T03:27:59;21.90;51.30
42885;DHT22;28534;48.100;11.584;2024-01-30T03:29:00;21.90;51.40
42885;DHT22;28534;48.100;11.584;2024-01-30T03:30:01;21.70;51.30
42885;DHT22;28534;48.100;11.584;2024-01-30T03:31:02;21.70;51.40
42885;DHT22;28534;48.100;11.584;2024-01-30T03:32:04;21.70;51.40
42885;DHT22;28534;48.100;11.584;2024-01-30T03:33:05;21.70;51.40
42885;DHT22;28534;48.100;11.584;2024-01-30T03:34:05;21.80;51.50
42885;DHT22;28534;48.100;11.584;2024-01-30T03:35:07;21.90;51.60
42885;DHT22;28534;48.100;11.584;2024-01-30T03:36:08;21.70;52.10
42885;DHT22;28534;48.100;11.584;2024-01-30T03:37:10;21.60;51.50
42885;DHT22;28534;48.100;11.584;2024-01-30T03:38:12;21.80;51.70
42885;DHT22;28534;48.100;11.584;2024-01-30T03:39:13;21.60;51.60
42885;DHT22;28534;48.100;11.584;2024-01-30T03:40:14;21.70;51.70
42885;DHT22;28534;48.100;11.584;2024-01-30T03:41:15;21.60;51.70
42885;DHT22;28534;48.100;11.584;2024-01-30T03:42:17;21.70;51.70
42885;DHT22;28534;48.100;11.584;2024-01-30T03:43:17;21.70;51.70
42885;DHT22;28534;48.100;11.584;2024-01-30T03:44:19;21.70;51.70
42885;DHT22;28534;48.100;11.584;2024-01-30T03:45:20;21.60;51.60
42885;DHT22;28534;48.100;11.584;2024-01-30T03:46:21;21.80;51.60
42885;DHT22;28534;48.100;11.584;2024-01-30T03:47:22;21.90;51.50
42885;DHT22;28534;48.100;11.584;2024-01-30T03:48:23;21.90;51.30
42885;DHT22;28534;48.100;11.584;2024-01-30T03:49:25;21.90;51.10
42885;DHT22;28534;48.100;11.584;2024-01-30T03:50:26;22.00;51.00
42885;DHT22;28534;48.100;11.584;2024-01-30T03:51:28;22.10;50.90
42885;DHT22;28534;48.100;11.584;2024-01-30T03:52:30;22.10;51.00
42885;DHT22;28534;48.100;11.584;2024-01-30T03:53:31;22.00;51.00
42885;DHT22;28534;48.100;11.584;2024-01-30T03:54:33;22.10;50.90
42885;DHT22;28534;48.100;11.584;2024-01-30T03:55:34;22.20;51.00
42885;DHT22;28534;48.100;11.584;2024-01-30T03:56:35;21.90;51.00
42885;DHT22;28534;48.100;11.584;2024-01-30T03:57:36;22.10;51.20
42885;DHT22;28534;48.100;11.584;2024-01-30T03:58:37;21.90;51.10
42885;DHT22;28534;48.100;11.584;2024-01-30T03:59:38;21.90;51.10
42885;DHT22;28534;48.100;11.584;2024-01-30T04:00:42;22.00;51.20
42885;DHT22;28534;48.100;11.584;2024-01-30T04:01:43;21.90;51.20
42885;DHT22;28534;48.100;11.584;2024-01-30T04:02:47;22.10;51.20
42885;DHT22;28534;48.100;11.584;2024-01-30T04:03:48;22.10;51.30
42885;DHT22;28534;48.100;11.584;2024-01-30T04:04:49;21.90;51.20
42885;DHT22;28534;48.100;11.584;2024-01-30T04:05:51;21.90;51.20
42885;DHT22;28534;48.100;11.584;2024-01-30T04:06:52;21.90;51.10
42885;DHT22;28534;48.100;11.584;2024-01-30T04:07:53;22.00;51.20
42885;DHT22;28534;48.100;11.584;2024-01-30T04:08:56;22.00;51.20
42885;DHT22;28534;48.100;11.584;2024-01-30T04:09:56;22.00;51.10
42885;DHT22;28534;48.100;11.584;2024-01-30T04:10:58;21.90;51.10
42885;DHT22;28534;48.100;11.584;2024-01-30T04:11:59;22.00;51.20
42885;DHT22;28534;48.100;11.584;2024-01-30T04:13:00;21.90;51.00
42885;DHT22;28534;48.100;11.584;2024-01-30T04:14:01;22.10;51.10
42885;DHT22;28534;48.100;11.584;2024-01-30T04:15:03;22.00;51.00
42885;DHT22;28534;48.100;11.584;2024-01-30T04:16:04;22.00;51.00
42885;DHT22;28534;48.100;11.584;2024-01-30T04:17:06;22.00;50.90
42885;DHT22;28534;48.100;11.584;2024-01-30T04:18:06;22.20;51.00
42885;DHT22;28534;48.100;11.584;2024-01-30T04:19:08;22.20;50.70
42885;DHT22;28534;48.100;11.584;2024-01-30T04:20:12;22.20;50.60
42885;DHT22;28534;48.100;11.584;2024-01-30T04:21:13;22.20;50.50
42885;DHT22;28534;48.100;11.584;2024-01-30T04:22:15;22.40;50.40
42885;DHT22;28534;48.100;11.584;2024-01-30T04:23:15;22.40;50.40
42885;DHT22;28534;48.100;11.584;2024-01-30T04:24:18;22.50;50.30
42885;DHT22;28534;48.100;11.584;2024-01-30T04:25:19;22.40;50.20
42885;DHT22;28534;48.100;11.584;2024-01-30T04:26:20;22.50;50.20
42885;DHT22;28534;48.100;11.584;2024-01-30T04:27:21;22.60;50.30
42885;DHT22;28534;48.100;11.584;2024-01-30T04:28:23;22.60;50.10
42885;DHT22;28534;48.100;11.584;2024-01-30T04:29:25;22.60;49.90
42885;DHT22;28534;48.100;11.584;2024-01-30T04:30:26;22.70;50.50
42885;DHT22;28534;48.100;11.584;2024-01-30T04:31:27;22.60;49.90
42885;DHT22;28534;48.100;11.584;2024-01-30T04:32:29;22.80;49.90
42885;DHT22;28534;48.100;11.584;2024-01-30T04:33:29;22.60;49.70
42885;DHT22;28534;48.100;11.584;2024-01-30T04:34:31;22.80;49.70
42885;DHT22;28534;48.100;11.584;2024-01-30T04:35:31;22.80;49.50
42885;DHT22;28534;48.100;11.584;2024-01-30T04:36:32;22.90;49.50
42885;DHT22;28534;48.100;11.584;2024-01-30T04:37:34;23.00;49.50
42885;DHT22;28534;48.100;11.584;2024-01-30T04:38:34;23.00;49.40
42885;DHT22;28534;48.100;11.584;2024-01-30T04:39:37;22.90;49.30
42885;DHT22;28534;48.100;11.584;2024-01-30T04:40:38;23.10;49.30
42885;DHT22;28534;48.100;11.584;2024-01-30T04:41:39;23.00;49.20
42885;DHT22;28534;48.100;11.584;2024-01-30T04:42:40;23.10;49.20
42885;DHT22;28534;48.100;11.584;2024-01-30T04:43:41;23.10;49.10
42885;DHT22;28534;48.100;11.584;2024-01-30T04:44:42;23.20;49.20
42885;DHT22;28534;48.100;11.584;2024-01-30T04:45:44;23.10;49.00
42885;DHT22;28534;48.100;11.584;2024-01-30T04:46:44;23.30;49.10
42885;DHT22;28534;48.100;11.584;2024-01-30T04:47:46;23.10;49.00
42885;DHT22;28534;48.100;11.584;2024-01-30T04:48:46;23.20;49.00
42885;DHT22;28534;48.100;11.584;2024-01-30T04:49:48;23.40;49.10
42885;DHT22;28534;48.100;11.584;2024-01-30T04:50:48;23.30;48.90
42885;DHT22;28534;48.100;11.584;2024-01-30T04:51:50;23.20;48.90
42885;DHT22;28534;48.100;11.584;2024-01-30T04:52:51;23.40;49.10
42885;DHT22;28534;48.100;11.584;2024-01-30T04:53:52;23.40;49.20
42885;DHT22;28534;48.100;11.584;2024-01-30T04:54:54;23.40;49.20
42885;DHT22;28534;48.100;11.584;2024-01-30T04:55:56;23.40;49.30
42885;DHT22;28534;48.100;11.584;2024-01-30T04:56:56;23.20;49.20
42885;DHT22;28534;48.100;11.584;2024-01-30T04:57:58;23.30;49.20
42885;DHT22;28534;48.100;11.584;2024-01-30T04:58:59;23.50;49.30
42885;DHT22;28534;48.100;11.584;2024-01-30T05:00:00;23.40;49.20
42885;DHT22;28534;48.100;11.584;2024-01-30T05:01:01;23.50;49.30
42885;DHT22;28534;48.100;11.584;2024-01-30T05:02:03;24.10;49.40
42885;DHT22;28534;48.100;11.584;2024-01-30T05:03:04;23.40;49.40
42885;DHT22;28534;48.100;11.584;2024-01-30T05:04:07;23.30;49.60
42885;DHT22;28534;48.100;11.584;2024-01-30T05:05:07;23.40;49.80
42885;DHT22;28534;48.100;11.584;2024-01-30T05:06:09;23.40;49.90
42885;DHT22;28534;48.100;11.584;2024-01-30T05:07:10;23.30;50.00
42885;DHT22;28534;48.100;11.584;2024-01-30T05:08:11;24.20;50.40
42885;DHT22;28534;48.100;11.584;2024-01-30T05:09:12;23.30;50.10
42885;DHT22;28534;48.100;11.584;2024-01-30T05:10:14;23.30;50.20
42885;DHT22;28534;48.100;11.584;2024-01-30T05:11:15;23.20;50.10
42885;DHT22;28534;48.100;11.584;2024-01-30T05:12:16;23.30;50.10
42885;DHT22;28534;48.100;11.584;2024-01-30T05:13:18;23.40;50.30
42885;DHT22;28534;48.100;11.584;2024-01-30T05:14:18;23.30;50.20
42885;DHT22;28534;48.100;11.584;2024-01-30T05:15:20;23.30;50.10
42885;DHT22;28534;48.100;11.584;2024-01-30T05:16:20;23.30;50.10
42885;DHT22;28534;48.100;11.584;2024-01-30T05:17:22;23.30;50.10
42885;DHT22;28534;48.100;11.584;2024-01-30T05:18:23;23.30;50.30
42885;DHT22;28534;48.100;11.584;2024-01-30T05:19:25;23.30;50.40
42885;DHT22;28534;48.100;11.584;2024-01-30T05:20:25;23.50;50.60
42885;DHT22;28534;48.100;11.584;2024-01-30T05:21:28;23.40;50.50
42885;DHT22;28534;48.100;11.584;2024-01-30T05:22:29;23.50;50.60
42885;DHT22;28534;48.100;11.584;2024-01-30T05:23:30;23.40;50.40
42885;DHT22;28534;48.100;11.584;2024-01-30T05:24:31;23.30;50.50
42885;DHT22;28534;48.100;11.584;2024-01-30T05:25:34;23.40;50.60
42885;DHT22;28534;48.100;11.584;2024-01-30T05:26:34;23.40;50.50
42885;DHT22;28534;48.100;11.584;2024-01-30T05:27:36;23.40;50.50
42885;DHT22;28534;48.100;11.584;2024-01-30T05:28:37;23.40;50.50
42885;DHT22;28534;48.100;11.584;2024-01-30T05:29:38;23.30;50.60
42885;DHT22;28534;48.100;11.584;2024-01-30T05:30:39;23.40;50.70
42885;DHT22;28534;48.100;11.584;2024-01-30T05:31:40;23.30;50.70
42885;DHT22;28534;48.100;11.584;2024-01-30T05:32:41;23.50;50.50
42885;DHT22;28534;48.100;11.584;2024-01-30T05:33:43;23.40;50.20
42885;DHT22;28534;48.100;11.584;2024-01-30T05:34:43;23.50;50.30
42885;DHT22;28534;48.100;11.584;2024-01-30T05:35:45;23.50;50.30
42885;DHT22;28534;48.100;11.584;2024-01-30T05:36:46;23.40;50.30
42885;DHT22;28534;48.100;11.584;2024-01-30T05:37:47;23.60;50.50
42885;DHT22;28534;48.100;11.584;2024-01-30T05:38:48;23.40;50.40
42885;DHT22;28534;48.100;11.584;2024-01-30T05:39:50;23.50;50.70
42885;DHT22;28534;48.100;11.584;2024-01-30T05:40:51;23.40;50.70
42885;DHT22;28534;48.100;11.584;2024-01-30T05:41:53;23.40;50.70
42885;DHT22;28534;48.100;11.584;2024-01-30T05:42:54;23.40;50.70
42885;DHT22;28534;48.100;11.584;2024-01-30T05:43:56;23.40;50.80
42885;DHT22;28534;48.100;11.584;2024-01-30T05:44:56;23.50;51.00
42885;DHT22;28534;48.100;11.584;2024-01-30T05:45:58;23.50;51.20
42885;DHT22;28534;48.100;11.584;2024-01-30T05:46:59;23.40;51.00
42885;DHT22;28534;48.100;11.584;2024-01-30T05:48:00;23.50;51.60
42885;DHT22;28534;48.100;11.584;2024-01-30T05:49:01;23.50;51.80
42885;DHT22;28534;48.100;11.584;2024-01-30T05:50:02;23.40;51.60
42885;DHT22;28534;48.100;11.584;2024-01-30T05:51:04;23.40;51.70
42885;DHT22;28534;48.100;11.584;2024-01-30T05:52:05;23.50;51.80
42885;DHT22;28534;48.100;11.584;2024-01-30T05:53:07;23.50;51.90
42885;DHT22;28534;48.100;11.584;2024-01-30T05:54:07;23.60;51.70
42885;DHT22;28534;48.100;11.584;2024-01-30T05:55:09;23.50;51.30
42885;DHT22;28534;48.100;11.584;2024-01-30T05:56:12;23.50;51.20
42885;DHT22;28534;48.100;11.584;2024-01-30T05:57:13;23.70;51.10
42885;DHT22;28534;48.100;11.584;2024-01-30T05:58:14;23.50;51.10
42885;DHT22;28534;48.100;11.584;2024-01-30T05:59:15;23.50;51.10
42885;DHT22;28534;48.100;11.584;2024-01-30T06:00:16;23.50;51.10
42885;DHT22;28534;48.100;11.584;2024-01-30T06:01:18;23.50;51.10
42885;DHT22;28534;48.100;11.584;2024-01-30T06:02:19;23.50;51.10
42885;DHT22;28534;48.100;11.584;2024-01-30T06:03:20;23.50;51.10
42885;DHT22;28534;48.100;11.584;2024-01-30T06:04:21;23.50;51.00
42885;DHT22;28534;48.100;11.584;2024-01-30T06:05:22;23.50;51.00
42885;DHT22;28534;48.100;11.584;2024-01-30T06:06:23;23.50;51.10
42885;DHT22;28534;48.100;11.584;2024-01-30T06:07:25;23.70;51.20
42885;DHT22;28534;48.100;11.584;2024-01-30T06:08:25;23.50;51.20
42885;DHT22;28534;48.100;11.584;2024-01-30T06:09:27;23.50;51.30
42885;DHT22;28534;48.100;11.584;2024-01-30T06:10:28;23.60;51.50
42885;DHT22;28534;48.100;11.584;2024-01-30T06:11:31;23.50;51.90
42885;DHT22;28534;48.100;11.584;2024-01-30T06:12:32;23.60;52.10
42885;DHT22;28534;48.100;11.584;2024-01-30T06:13:33;23.60;52.30
42885;DHT22;28534;48.100;11.584;2024-01-30T06:14:34;23.60;52.40
42885;DHT22;28534;48.100;11.584;2024-01-30T06:15:36;23.70;52.50
42885;DHT22;28534;48.100;11.584;2024-01-30T06:16:36;23.60;52.40
42885;DHT22;28534;48.100;11.584;2024-01-30T06:17:38;23.60;52.60
42885;DHT22;28534;48.100;11.584;2024-01-30T06:18:38;23.60;52.80
42885;DHT22;28534;48.100;11.584;2024-01-30T06:19:40;23.60;52.40
42885;DHT22;28534;48.100;11.584;2024-01-30T06:20:41;23.70;52.20